sensor_id;sensor_type;location;lat;lon;timestamp;P1;durP1;ratioP1;P2;durP2;ratioP2
71187;SDS011;58893;53.130;8.158;2023-02-23T00:01:33;36.77;;;17.73;;
71187;SDS011;58893;53.130;8.158;2023-02-23T00:03:58;42.70;;;18.67;;
71187;SDS011;58893;53.130;8.158;2023-02-23T00:06:25;40.17;;;19.10;;
71187;SDS011;58893;53.130;8.158;2023-02-23T00:08:52;38.73;;;16.77;;
71187;SDS011;58893;53.130;8.158;2023-02-23T00:11:18;39.47;;;17.77;;
71187;SDS011;58893;53.130;8.158;2023-02-23T00:13:45;46.83;;;19.27;;
71187;SDS011;58893;53.130;8.158;2023-02-23T00:16:17;43.87;;;17.30;;
71187;SDS011;58893;53.130;8.158;2023-02-23T00:18:50;38.43;;;16.30;;
71187;SDS011;58893;53.130;8.158;2023-02-23T00:23:47;39.13;;;17.93;;
71187;SDS011;58893;53.130;8.158;2023-02-23T00:26:15;48.10;;;19.00;;
71187;SDS011;58893;53.130;8.158;2023-02-23T00:28:43;41.47;;;17.90;;
71187;SDS011;58893;53.130;8.158;2023-02-23T00:31:09;45.83;;;18.50;;
71187;SDS011;58893;53.130;8.158;2023-02-23T00:33:35;46.70;;;18.20;;
71187;SDS011;58893;53.130;8.158;2023-02-23T00:36:05;42.07;;;18.33;;
71187;SDS011;58893;53.130;8.158;2023-02-23T00:38:32;49.20;;;20.93;;
71187;SDS011;58893;53.130;8.158;2023-02-23T00:41:03;42.47;;;19.37;;
71187;SDS011;58893;53.130;8.158;2023-02-23T00:43:39;43.50;;;18.90;;
71187;SDS011;58893;53.130;8.158;2023-02-23T00:46:15;43.70;;;17.23;;
71187;SDS011;58893;53.130;8.158;2023-02-23T00:48:43;43.47;;;19.47;;
71187;SDS011;58893;53.130;8.158;2023-02-23T00:51:09;46.07;;;19.60;;
71187;SDS011;58893;53.130;8.158;2023-02-23T00:53:35;38.87;;;17.37;;
71187;SDS011;58893;53.130;8.158;2023-02-23T00:56:05;49.50;;;21.50;;
71187;SDS011;58893;53.130;8.158;2023-02-23T00:58:32;48.83;;;16.80;;
71187;SDS011;58893;53.130;8.158;2023-02-23T01:00:57;50.13;;;17.93;;
71187;SDS011;58893;53.130;8.158;2023-02-23T01:03:24;48.90;;;17.90;;
71187;SDS011;58893;53.130;8.158;2023-02-23T01:05:50;41.00;;;18.33;;
71187;SDS011;58893;53.130;8.158;2023-02-23T01:08:16;43.97;;;18.87;;
71187;SDS011;58893;53.130;8.158;2023-02-23T01:10:43;39.83;;;18.37;;
71187;SDS011;58893;53.130;8.158;2023-02-23T01:13:16;43.60;;;19.20;;
71187;SDS011;58893;53.130;8.158;2023-02-23T01:15:43;41.80;;;18.33;;
71187;SDS011;58893;53.130;8.158;2023-02-23T01:18:11;47.00;;;18.60;;
71187;SDS011;58893;53.130;8.158;2023-02-23T01:20:38;47.33;;;17.30;;
71187;SDS011;58893;53.130;8.158;2023-02-23T01:23:05;44.43;;;17.33;;
71187;SDS011;58893;53.130;8.158;2023-02-23T01:25:32;41.43;;;17.80;;
71187;SDS011;58893;53.130;8.158;2023-02-23T01:27:59;44.40;;;18.27;;
71187;SDS011;58893;53.130;8.158;2023-02-23T01:30:25;53.77;;;18.47;;
71187;SDS011;58893;53.130;8.158;2023-02-23T01:32:51;48.63;;;18.67;;
71187;SDS011;58893;53.130;8.158;2023-02-23T01:35:17;38.00;;;18.33;;
71187;SDS011;58893;53.130;8.158;2023-02-23T01:37:42;47.37;;;17.70;;
71187;SDS011;58893;53.130;8.158;2023-02-23T01:40:12;41.80;;;17.43;;
71187;SDS011;58893;53.130;8.158;2023-02-23T01:42:42;40.33;;;17.37;;
71187;SDS011;58893;53.130;8.158;2023-02-23T01:45:23;53.23;;;19.80;;
71187;SDS011;58893;53.130;8.158;2023-02-23T01:47:56;40.80;;;17.70;;
71187;SDS011;58893;53.130;8.158;2023-02-23T01:50:26;46.60;;;18.50;;
71187;SDS011;58893;53.130;8.158;2023-02-23T01:52:54;46.23;;;19.10;;
71187;SDS011;58893;53.130;8.158;2023-02-23T01:55:21;46.37;;;18.60;;
71187;SDS011;58893;53.130;8.158;2023-02-23T01:57:53;51.93;;;18.47;;
71187;SDS011;58893;53.130;8.158;2023-02-23T02:00:29;50.83;;;18.03;;
71187;SDS011;58893;53.130;8.158;2023-02-23T02:02:57;39.50;;;16.60;;
71187;SDS011;58893;53.130;8.158;2023-02-23T02:05:26;48.90;;;17.50;;
71187;SDS011;58893;53.130;8.158;2023-02-23T02:07:52;52.40;;;18.20;;
71187;SDS011;58893;53.130;8.158;2023-02-23T02:10:23;51.97;;;20.37;;
71187;SDS011;58893;53.130;8.158;2023-02-23T02:13:12;56.20;;;17.97;;
71187;SDS011;58893;53.130;8.158;2023-02-23T02:15:49;58.13;;;17.17;;
71187;SDS011;58893;53.130;8.158;2023-02-23T02:18:51;50.07;;;18.10;;
71187;SDS011;58893;53.130;8.158;2023-02-23T02:46:23;61.97;;;21.47;;
71187;SDS011;58893;53.130;8.158;2023-02-23T02:57:03;46.03;;;16.33;;
71187;SDS011;58893;53.130;8.158;2023-02-23T02:59:30;58.33;;;19.57;;
71187;SDS011;58893;53.130;8.158;2023-02-23T03:02:24;48.47;;;17.60;;
71187;SDS011;58893;53.130;8.158;2023-02-23T03:11:04;46.20;;;17.87;;
71187;SDS011;58893;53.130;8.158;2023-02-23T03:20:02;52.83;;;16.50;;
71187;SDS011;58893;53.130;8.158;2023-02-23T03:23:02;46.60;;;17.10;;
71187;SDS011;58893;53.130;8.158;2023-02-23T03:29:26;49.67;;;16.67;;
71187;SDS011;58893;53.130;8.158;2023-02-23T03:32:28;47.83;;;17.93;;
71187;SDS011;58893;53.130;8.158;2023-02-23T03:41:28;54.57;;;20.60;;
71187;SDS011;58893;53.130;8.158;2023-02-23T03:44:17;51.80;;;18.50;;
71187;SDS011;58893;53.130;8.158;2023-02-23T03:47:08;45.13;;;18.47;;
71187;SDS011;58893;53.130;8.158;2023-02-23T03:49:54;51.03;;;18.27;;
71187;SDS011;58893;53.130;8.158;2023-02-23T03:52:41;46.70;;;17.87;;
71187;SDS011;58893;53.130;8.158;2023-02-23T03:55:31;54.00;;;18.90;;
71187;SDS011;58893;53.130;8.158;2023-02-23T03:58:21;46.47;;;18.50;;
71187;SDS011;58893;53.130;8.158;2023-02-23T04:01:10;49.07;;;17.90;;
71187;SDS011;58893;53.130;8.158;2023-02-23T04:03:58;41.67;;;17.43;;
71187;SDS011;58893;53.130;8.158;2023-02-23T04:06:44;46.30;;;18.03;;
71187;SDS011;58893;53.130;8.158;2023-02-23T04:09:30;56.90;;;19.07;;
71187;SDS011;58893;53.130;8.158;2023-02-23T04:12:16;49.00;;;18.70;;
71187;SDS011;58893;53.130;8.158;2023-02-23T04:15:20;45.97;;;17.10;;
71187;SDS011;58893;53.130;8.158;2023-02-23T04:17:53;53.40;;;17.93;;
71187;SDS011;58893;53.130;8.158;2023-02-23T04:20:19;51.03;;;19.77;;
71187;SDS011;58893;53.130;8.158;2023-02-23T04:22:46;48.33;;;17.03;;
71187;SDS011;58893;53.130;8.158;2023-02-23T04:25:12;52.17;;;20.17;;
71187;SDS011;58893;53.130;8.158;2023-02-23T04:27:39;57.83;;;20.50;;
71187;SDS011;58893;53.130;8.158;2023-02-23T04:30:05;53.23;;;19.67;;
71187;SDS011;58893;53.130;8.158;2023-02-23T04:32:31;71.93;;;18.77;;
71187;SDS011;58893;53.130;8.158;2023-02-23T04:34:57;58.27;;;20.73;;
71187;SDS011;58893;53.130;8.158;2023-02-23T04:37:23;60.13;;;21.60;;
71187;SDS011;58893;53.130;8.158;2023-02-23T04:39:48;54.00;;;20.30;;
71187;SDS011;58893;53.130;8.158;2023-02-23T04:42:15;67.37;;;23.47;;
71187;SDS011;58893;53.130;8.158;2023-02-23T04:44:41;61.80;;;20.70;;
71187;SDS011;58893;53.130;8.158;2023-02-23T04:47:07;70.50;;;22.20;;
71187;SDS011;58893;53.130;8.158;2023-02-23T04:49:33;69.37;;;21.30;;
71187;SDS011;58893;53.130;8.158;2023-02-23T04:51:59;70.83;;;23.20;;
71187;SDS011;58893;53.130;8.158;2023-02-23T04:54:24;62.90;;;21.40;;
71187;SDS011;58893;53.130;8.158;2023-02-23T04:56:50;56.10;;;20.90;;
71187;SDS011;58893;53.130;8.158;2023-02-23T04:59:16;67.60;;;23.50;;
71187;SDS011;58893;53.130;8.158;2023-02-23T05:01:42;63.30;;;21.37;;
71187;SDS011;58893;53.130;8.158;2023-02-23T05:04:08;59.53;;;21.70;;
71187;SDS011;58893;53.130;8.158;2023-02-23T05:06:33;94.93;;;22.47;;
71187;SDS011;58893;53.130;8.158;2023-02-23T05:08:59;65.57;;;22.90;;
71187;SDS011;58893;53.130;8.158;2023-02-23T05:11:27;54.20;;;19.67;;
71187;SDS011;58893;53.130;8.158;2023-02-23T05:13:53;70.20;;;21.17;;
71187;SDS011;58893;53.130;8.158;2023-02-23T05:16:19;64.07;;;22.60;;
71187;SDS011;58893;53.130;8.158;2023-02-23T05:18:44;68.17;;;22.10;;
71187;SDS011;58893;53.130;8.158;2023-02-23T05:21:11;65.90;;;21.90;;
71187;SDS011;58893;53.130;8.158;2023-02-23T05:23:36;69.50;;;22.17;;
71187;SDS011;58893;53.130;8.158;2023-02-23T05:26:03;76.73;;;20.67;;
71187;SDS011;58893;53.130;8.158;2023-02-23T05:28:31;66.13;;;21.47;;
71187;SDS011;58893;53.130;8.158;2023-02-23T05:30:58;66.27;;;23.17;;
71187;SDS011;58893;53.130;8.158;2023-02-23T05:33:24;69.80;;;24.03;;
71187;SDS011;58893;53.130;8.158;2023-02-23T05:35:50;65.77;;;22.97;;
71187;SDS011;58893;53.130;8.158;2023-02-23T05:38:16;59.40;;;20.50;;
71187;SDS011;58893;53.130;8.158;2023-02-23T05:40:41;70.97;;;22.80;;
71187;SDS011;58893;53.130;8.158;2023-02-23T05:43:07;69.27;;;23.50;;
71187;SDS011;58893;53.130;8.158;2023-02-23T05:45:33;73.23;;;23.93;;
71187;SDS011;58893;53.130;8.158;2023-02-23T05:48:03;59.27;;;19.47;;
71187;SDS011;58893;53.130;8.158;2023-02-23T05:50:29;73.83;;;20.60;;
71187;SDS011;58893;53.130;8.158;2023-02-23T05:52:54;66.07;;;21.83;;
71187;SDS011;58893;53.130;8.158;2023-02-23T05:55:20;64.53;;;22.43;;
71187;SDS011;58893;53.130;8.158;2023-02-23T05:57:45;60.00;;;20.97;;
71187;SDS011;58893;53.130;8.158;2023-02-23T06:00:12;66.43;;;23.50;;
71187;SDS011;58893;53.130;8.158;2023-02-23T06:02:38;61.37;;;22.40;;
71187;SDS011;58893;53.130;8.158;2023-02-23T06:05:05;73.40;;;24.10;;
71187;SDS011;58893;53.130;8.158;2023-02-23T06:07:32;53.93;;;20.47;;
71187;SDS011;58893;53.130;8.158;2023-02-23T06:09:57;77.43;;;23.27;;
71187;SDS011;58893;53.130;8.158;2023-02-23T06:12:23;72.10;;;20.60;;
71187;SDS011;58893;53.130;8.158;2023-02-23T06:14:49;72.67;;;21.57;;
71187;SDS011;58893;53.130;8.158;2023-02-23T06:17:15;70.93;;;22.50;;
71187;SDS011;58893;53.130;8.158;2023-02-23T06:19:41;60.33;;;21.90;;
71187;SDS011;58893;53.130;8.158;2023-02-23T06:22:07;74.90;;;20.80;;
71187;SDS011;58893;53.130;8.158;2023-02-23T06:24:32;71.20;;;21.53;;
71187;SDS011;58893;53.130;8.158;2023-02-23T06:26:58;66.17;;;21.60;;
71187;SDS011;58893;53.130;8.158;2023-02-23T06:29:24;69.73;;;21.70;;
71187;SDS011;58893;53.130;8.158;2023-02-23T06:31:50;63.10;;;21.60;;
71187;SDS011;58893;53.130;8.158;2023-02-23T06:34:15;76.00;;;24.27;;
71187;SDS011;58893;53.130;8.158;2023-02-23T06:36:41;75.03;;;22.70;;
71187;SDS011;58893;53.130;8.158;2023-02-23T06:39:08;67.47;;;21.47;;
71187;SDS011;58893;53.130;8.158;2023-02-23T06:41:37;83.23;;;24.77;;
71187;SDS011;58893;53.130;8.158;2023-02-23T06:44:03;85.07;;;27.03;;
71187;SDS011;58893;53.130;8.158;2023-02-23T06:46:28;90.83;;;25.10;;
71187;SDS011;58893;53.130;8.158;2023-02-23T06:48:55;101.57;;;27.10;;
71187;SDS011;58893;53.130;8.158;2023-02-23T06:51:21;84.13;;;24.50;;
71187;SDS011;58893;53.130;8.158;2023-02-23T06:53:47;89.60;;;27.10;;
71187;SDS011;58893;53.130;8.158;2023-02-23T06:56:13;92.60;;;25.70;;
71187;SDS011;58893;53.130;8.158;2023-02-23T06:58:39;79.23;;;25.07;;
71187;SDS011;58893;53.130;8.158;2023-02-23T07:01:07;84.23;;;25.80;;
71187;SDS011;58893;53.130;8.158;2023-02-23T07:03:34;83.40;;;27.17;;
71187;SDS011;58893;53.130;8.158;2023-02-23T07:05:59;103.93;;;28.00;;
71187;SDS011;58893;53.130;8.158;2023-02-23T07:08:28;98.17;;;27.63;;
71187;SDS011;58893;53.130;8.158;2023-02-23T07:10:53;100.50;;;28.47;;
71187;SDS011;58893;53.130;8.158;2023-02-23T07:13:20;73.57;;;24.50;;
71187;SDS011;58893;53.130;8.158;2023-02-23T07:15:46;75.63;;;23.57;;
71187;SDS011;58893;53.130;8.158;2023-02-23T07:18:12;78.93;;;24.50;;
71187;SDS011;58893;53.130;8.158;2023-02-23T07:20:37;100.80;;;27.37;;
71187;SDS011;58893;53.130;8.158;2023-02-23T07:23:03;89.93;;;27.13;;
71187;SDS011;58893;53.130;8.158;2023-02-23T07:25:29;97.60;;;28.73;;
71187;SDS011;58893;53.130;8.158;2023-02-23T07:27:55;123.30;;;27.87;;
71187;SDS011;58893;53.130;8.158;2023-02-23T07:30:23;101.67;;;30.87;;
71187;SDS011;58893;53.130;8.158;2023-02-23T07:32:49;121.63;;;28.20;;
71187;SDS011;58893;53.130;8.158;2023-02-23T07:35:16;92.13;;;25.90;;
71187;SDS011;58893;53.130;8.158;2023-02-23T07:37:41;90.10;;;26.60;;
71187;SDS011;58893;53.130;8.158;2023-02-23T07:40:08;107.57;;;27.07;;
71187;SDS011;58893;53.130;8.158;2023-02-23T07:42:34;95.87;;;25.27;;
71187;SDS011;58893;53.130;8.158;2023-02-23T07:45:00;101.37;;;25.30;;
71187;SDS011;58893;53.130;8.158;2023-02-23T07:47:25;110.77;;;30.50;;
71187;SDS011;58893;53.130;8.158;2023-02-23T07:49:58;107.33;;;25.47;;
71187;SDS011;58893;53.130;8.158;2023-02-23T07:52:24;106.07;;;27.47;;
71187;SDS011;58893;53.130;8.158;2023-02-23T07:54:50;95.93;;;29.23;;
71187;SDS011;58893;53.130;8.158;2023-02-23T07:57:16;88.57;;;29.10;;
71187;SDS011;58893;53.130;8.158;2023-02-23T07:59:41;85.27;;;25.53;;
71187;SDS011;58893;53.130;8.158;2023-02-23T08:02:08;87.60;;;26.07;;
71187;SDS011;58893;53.130;8.158;2023-02-23T08:04:39;109.33;;;28.97;;
71187;SDS011;58893;53.130;8.158;2023-02-23T08:07:05;94.13;;;27.17;;
71187;SDS011;58893;53.130;8.158;2023-02-23T08:09:31;88.77;;;25.37;;
71187;SDS011;58893;53.130;8.158;2023-02-23T08:11:59;95.73;;;28.37;;
71187;SDS011;58893;53.130;8.158;2023-02-23T08:14:25;74.60;;;26.47;;
71187;SDS011;58893;53.130;8.158;2023-02-23T08:16:51;101.90;;;27.17;;
71187;SDS011;58893;53.130;8.158;2023-02-23T08:19:17;96.03;;;27.07;;
71187;SDS011;58893;53.130;8.158;2023-02-23T08:21:43;88.77;;;26.67;;
71187;SDS011;58893;53.130;8.158;2023-02-23T08:24:08;100.93;;;25.83;;
71187;SDS011;58893;53.130;8.158;2023-02-23T08:26:35;78.87;;;23.53;;
71187;SDS011;58893;53.130;8.158;2023-02-23T08:29:02;80.57;;;25.37;;
71187;SDS011;58893;53.130;8.158;2023-02-23T08:31:28;76.20;;;25.83;;
71187;SDS011;58893;53.130;8.158;2023-02-23T08:33:54;110.43;;;26.10;;
71187;SDS011;58893;53.130;8.158;2023-02-23T08:36:20;88.93;;;24.30;;
71187;SDS011;58893;53.130;8.158;2023-02-23T08:38:46;75.63;;;24.87;;
71187;SDS011;58893;53.130;8.158;2023-02-23T08:41:12;91.87;;;26.37;;
71187;SDS011;58893;53.130;8.158;2023-02-23T08:43:38;98.83;;;26.00;;
71187;SDS011;58893;53.130;8.158;2023-02-23T08:46:07;96.27;;;25.87;;
71187;SDS011;58893;53.130;8.158;2023-02-23T08:48:32;91.23;;;24.60;;
71187;SDS011;58893;53.130;8.158;2023-02-23T08:50:59;87.53;;;27.27;;
71187;SDS011;58893;53.130;8.158;2023-02-23T08:53:25;92.80;;;25.80;;
71187;SDS011;58893;53.130;8.158;2023-02-23T08:56:00;88.60;;;23.67;;
71187;SDS011;58893;53.130;8.158;2023-02-23T08:58:28;74.40;;;23.40;;
71187;SDS011;58893;53.130;8.158;2023-02-23T09:00:57;91.40;;;26.00;;
71187;SDS011;58893;53.130;8.158;2023-02-23T09:03:25;86.13;;;22.90;;
71187;SDS011;58893;53.130;8.158;2023-02-23T09:05:54;90.63;;;23.83;;
71187;SDS011;58893;53.130;8.158;2023-02-23T09:08:20;91.20;;;25.57;;
71187;SDS011;58893;53.130;8.158;2023-02-23T09:10:46;84.07;;;24.83;;
71187;SDS011;58893;53.130;8.158;2023-02-23T09:13:11;88.77;;;27.10;;
71187;SDS011;58893;53.130;8.158;2023-02-23T09:15:38;87.13;;;25.17;;
71187;SDS011;58893;53.130;8.158;2023-02-23T09:18:04;78.43;;;23.90;;
71187;SDS011;58893;53.130;8.158;2023-02-23T09:20:31;71.30;;;21.90;;
71187;SDS011;58893;53.130;8.158;2023-02-23T09:22:57;83.20;;;25.00;;
71187;SDS011;58893;53.130;8.158;2023-02-23T09:25:22;78.17;;;20.40;;
71187;SDS011;58893;53.130;8.158;2023-02-23T09:27:48;85.37;;;22.23;;
71187;SDS011;58893;53.130;8.158;2023-02-23T09:30:15;79.87;;;24.37;;
71187;SDS011;58893;53.130;8.158;2023-02-23T09:32:44;66.80;;;21.90;;
71187;SDS011;58893;53.130;8.158;2023-02-23T09:35:14;84.40;;;24.37;;
71187;SDS011;58893;53.130;8.158;2023-02-23T09:37:52;78.60;;;22.50;;
71187;SDS011;58893;53.130;8.158;2023-02-23T09:40:29;80.93;;;23.13;;
71187;SDS011;58893;53.130;8.158;2023-02-23T09:45:51;80.87;;;23.00;;
71187;SDS011;58893;53.130;8.158;2023-02-23T09:48:30;78.50;;;21.90;;
71187;SDS011;58893;53.130;8.158;2023-02-23T09:50:57;77.57;;;21.80;;
71187;SDS011;58893;53.130;8.158;2023-02-23T09:53:27;70.17;;;21.30;;
71187;SDS011;58893;53.130;8.158;2023-02-23T09:56:07;74.27;;;21.47;;
71187;SDS011;58893;53.130;8.158;2023-02-23T09:58:42;94.83;;;23.43;;
71187;SDS011;58893;53.130;8.158;2023-02-23T10:04:06;79.77;;;20.00;;
71187;SDS011;58893;53.130;8.158;2023-02-23T10:06:40;87.77;;;22.37;;
71187;SDS011;58893;53.130;8.158;2023-02-23T10:22:47;91.33;;;25.73;;
71187;SDS011;58893;53.130;8.158;2023-02-23T10:25:19;96.17;;;24.80;;
71187;SDS011;58893;53.130;8.158;2023-02-23T10:27:49;103.10;;;24.17;;
71187;SDS011;58893;53.130;8.158;2023-02-23T10:35:31;101.70;;;24.60;;
71187;SDS011;58893;53.130;8.158;2023-02-23T10:37:58;109.30;;;27.00;;
71187;SDS011;58893;53.130;8.158;2023-02-23T10:40:26;107.10;;;28.47;;
71187;SDS011;58893;53.130;8.158;2023-02-23T10:42:54;101.70;;;26.10;;
71187;SDS011;58893;53.130;8.158;2023-02-23T10:45:22;101.57;;;25.03;;
71187;SDS011;58893;53.130;8.158;2023-02-23T10:47:57;93.90;;;24.07;;
71187;SDS011;58893;53.130;8.158;2023-02-23T10:50:23;95.00;;;25.40;;
71187;SDS011;58893;53.130;8.158;2023-02-23T10:52:53;108.03;;;25.80;;
71187;SDS011;58893;53.130;8.158;2023-02-23T10:58:02;96.33;;;25.87;;
71187;SDS011;58893;53.130;8.158;2023-02-23T11:03:37;107.03;;;25.67;;
71187;SDS011;58893;53.130;8.158;2023-02-23T11:09:17;108.70;;;26.87;;
71187;SDS011;58893;53.130;8.158;2023-02-23T11:14:28;130.13;;;27.87;;
71187;SDS011;58893;53.130;8.158;2023-02-23T11:16:55;111.97;;;28.30;;
71187;SDS011;58893;53.130;8.158;2023-02-23T11:19:23;92.87;;;26.50;;
71187;SDS011;58893;53.130;8.158;2023-02-23T11:21:58;101.00;;;25.90;;
71187;SDS011;58893;53.130;8.158;2023-02-23T11:24:25;110.03;;;28.40;;
71187;SDS011;58893;53.130;8.158;2023-02-23T11:26:56;108.00;;;26.03;;
71187;SDS011;58893;53.130;8.158;2023-02-23T11:30:02;111.33;;;28.37;;
71187;SDS011;58893;53.130;8.158;2023-02-23T11:32:30;105.97;;;26.37;;
71187;SDS011;58893;53.130;8.158;2023-02-23T11:37:46;104.80;;;25.00;;
71187;SDS011;58893;53.130;8.158;2023-02-23T11:43:34;95.40;;;24.77;;
71187;SDS011;58893;53.130;8.158;2023-02-23T11:45:44;95.53;;;23.50;;
71187;SDS011;58893;53.130;8.158;2023-02-23T11:48:26;108.90;;;23.27;;
71187;SDS011;58893;53.130;8.158;2023-02-23T11:50:55;95.13;;;22.93;;
71187;SDS011;58893;53.130;8.158;2023-02-23T11:53:29;103.53;;;23.83;;
71187;SDS011;58893;53.130;8.158;2023-02-23T11:55:59;106.00;;;26.63;;
71187;SDS011;58893;53.130;8.158;2023-02-23T12:01:33;82.13;;;24.30;;
71187;SDS011;58893;53.130;8.158;2023-02-23T12:04:00;102.73;;;24.77;;
71187;SDS011;58893;53.130;8.158;2023-02-23T12:06:33;82.17;;;22.60;;
71187;SDS011;58893;53.130;8.158;2023-02-23T12:11:50;91.17;;;23.90;;
71187;SDS011;58893;53.130;8.158;2023-02-23T12:14:28;90.20;;;24.43;;
71187;SDS011;58893;53.130;8.158;2023-02-23T12:17:33;81.00;;;22.13;;
71187;SDS011;58893;53.130;8.158;2023-02-23T12:22:26;87.47;;;23.60;;
71187;SDS011;58893;53.130;8.158;2023-02-23T12:28:03;88.77;;;21.97;;
71187;SDS011;58893;53.130;8.158;2023-02-23T12:31:33;98.53;;;24.30;;
71187;SDS011;58893;53.130;8.158;2023-02-23T12:33:41;82.23;;;20.27;;
71187;SDS011;58893;53.130;8.158;2023-02-23T12:36:29;102.83;;;24.90;;
71187;SDS011;58893;53.130;8.158;2023-02-23T12:44:51;99.63;;;22.13;;
71187;SDS011;58893;53.130;8.158;2023-02-23T12:47:28;92.13;;;23.40;;
71187;SDS011;58893;53.130;8.158;2023-02-23T12:52:42;100.90;;;21.97;;
71187;SDS011;58893;53.130;8.158;2023-02-23T12:55:13;78.23;;;19.47;;
71187;SDS011;58893;53.130;8.158;2023-02-23T12:57:53;92.73;;;22.80;;
71187;SDS011;58893;53.130;8.158;2023-02-23T13:19:46;70.47;;;20.00;;
71187;SDS011;58893;53.130;8.158;2023-02-23T13:27:58;67.37;;;16.23;;
71187;SDS011;58893;53.130;8.158;2023-02-23T13:30:26;66.90;;;18.37;;
71187;SDS011;58893;53.130;8.158;2023-02-23T13:32:56;66.73;;;18.73;;
71187;SDS011;58893;53.130;8.158;2023-02-23T13:35:26;61.10;;;16.70;;
71187;SDS011;58893;53.130;8.158;2023-02-23T13:38:16;69.13;;;18.90;;
71187;SDS011;58893;53.130;8.158;2023-02-23T13:41:04;54.30;;;15.33;;
71187;SDS011;58893;53.130;8.158;2023-02-23T13:43:48;51.53;;;15.27;;
71187;SDS011;58893;53.130;8.158;2023-02-23T13:49:25;55.50;;;14.60;;
71187;SDS011;58893;53.130;8.158;2023-02-23T13:52:15;60.83;;;17.10;;
71187;SDS011;58893;53.130;8.158;2023-02-23T13:54:51;51.47;;;15.30;;
71187;SDS011;58893;53.130;8.158;2023-02-23T13:57:21;59.47;;;17.20;;
71187;SDS011;58893;53.130;8.158;2023-02-23T13:59:48;43.77;;;13.80;;
71187;SDS011;58893;53.130;8.158;2023-02-23T14:04:50;47.27;;;13.50;;
71187;SDS011;58893;53.130;8.158;2023-02-23T14:07:22;43.93;;;12.67;;
71187;SDS011;58893;53.130;8.158;2023-02-23T14:09:53;51.50;;;13.83;;
71187;SDS011;58893;53.130;8.158;2023-02-23T14:12:25;44.10;;;13.43;;
71187;SDS011;58893;53.130;8.158;2023-02-23T14:31:52;57.13;;;15.40;;
71187;SDS011;58893;53.130;8.158;2023-02-23T14:37:15;45.57;;;14.67;;
71187;SDS011;58893;53.130;8.158;2023-02-23T14:39:41;56.93;;;14.10;;
71187;SDS011;58893;53.130;8.158;2023-02-23T14:42:07;50.07;;;14.80;;
71187;SDS011;58893;53.130;8.158;2023-02-23T14:44:36;52.47;;;15.40;;
71187;SDS011;58893;53.130;8.158;2023-02-23T14:47:14;62.23;;;13.80;;
71187;SDS011;58893;53.130;8.158;2023-02-23T14:49:43;52.43;;;14.60;;
71187;SDS011;58893;53.130;8.158;2023-02-23T14:52:28;42.13;;;14.50;;
71187;SDS011;58893;53.130;8.158;2023-02-23T14:57:35;57.10;;;14.13;;
71187;SDS011;58893;53.130;8.158;2023-02-23T15:00:05;55.60;;;14.17;;
71187;SDS011;58893;53.130;8.158;2023-02-23T15:05:27;56.33;;;13.37;;
71187;SDS011;58893;53.130;8.158;2023-02-23T15:08:07;47.10;;;13.07;;
71187;SDS011;58893;53.130;8.158;2023-02-23T15:10:38;47.03;;;12.00;;
71187;SDS011;58893;53.130;8.158;2023-02-23T15:13:11;35.50;;;12.50;;
71187;SDS011;58893;53.130;8.158;2023-02-23T15:15:44;39.23;;;10.70;;
71187;SDS011;58893;53.130;8.158;2023-02-23T15:18:13;41.03;;;11.03;;
71187;SDS011;58893;53.130;8.158;2023-02-23T15:20:46;39.20;;;11.20;;
71187;SDS011;58893;53.130;8.158;2023-02-23T15:23:12;37.67;;;10.17;;
71187;SDS011;58893;53.130;8.158;2023-02-23T15:25:42;27.43;;;6.13;;
71187;SDS011;58893;53.130;8.158;2023-02-23T15:30:47;19.83;;;5.20;;
71187;SDS011;58893;53.130;8.158;2023-02-23T15:33:14;18.23;;;3.80;;
71187;SDS011;58893;53.130;8.158;2023-02-23T15:35:54;22.87;;;4.57;;
71187;SDS011;58893;53.130;8.158;2023-02-23T15:38:33;18.60;;;3.77;;
71187;SDS011;58893;53.130;8.158;2023-02-23T15:41:03;32.47;;;7.10;;
71187;SDS011;58893;53.130;8.158;2023-02-23T15:43:32;19.63;;;4.30;;
71187;SDS011;58893;53.130;8.158;2023-02-23T15:45:59;22.80;;;3.87;;
71187;SDS011;58893;53.130;8.158;2023-02-23T15:48:40;15.47;;;3.73;;
71187;SDS011;58893;53.130;8.158;2023-02-23T15:51:19;34.73;;;4.10;;
71187;SDS011;58893;53.130;8.158;2023-02-23T15:53:48;13.17;;;3.43;;
71187;SDS011;58893;53.130;8.158;2023-02-23T15:56:15;19.47;;;4.07;;
71187;SDS011;58893;53.130;8.158;2023-02-23T15:58:49;15.33;;;2.47;;
71187;SDS011;58893;53.130;8.158;2023-02-23T16:01:22;18.80;;;3.33;;
71187;SDS011;58893;53.130;8.158;2023-02-23T16:06:35;36.63;;;4.40;;
71187;SDS011;58893;53.130;8.158;2023-02-23T16:11:54;36.77;;;4.00;;
71187;SDS011;58893;53.130;8.158;2023-02-23T16:14:23;26.33;;;3.00;;
71187;SDS011;58893;53.130;8.158;2023-02-23T16:16:54;28.67;;;3.60;;
71187;SDS011;58893;53.130;8.158;2023-02-23T16:19:22;17.67;;;3.27;;
71187;SDS011;58893;53.130;8.158;2023-02-23T16:21:50;21.63;;;3.37;;
71187;SDS011;58893;53.130;8.158;2023-02-23T16:24:22;18.10;;;3.27;;
71187;SDS011;58893;53.130;8.158;2023-02-23T16:26:57;20.07;;;3.50;;
71187;SDS011;58893;53.130;8.158;2023-02-23T16:32:18;17.97;;;3.00;;
71187;SDS011;58893;53.130;8.158;2023-02-23T16:34:48;32.10;;;4.27;;
71187;SDS011;58893;53.130;8.158;2023-02-23T16:37:20;20.23;;;3.50;;
71187;SDS011;58893;53.130;8.158;2023-02-23T16:39:49;19.87;;;3.37;;
71187;SDS011;58893;53.130;8.158;2023-02-23T16:44:50;19.10;;;4.07;;
71187;SDS011;58893;53.130;8.158;2023-02-23T16:49:48;29.77;;;3.77;;
71187;SDS011;58893;53.130;8.158;2023-02-23T16:52:15;52.17;;;4.40;;
71187;SDS011;58893;53.130;8.158;2023-02-23T16:54:47;13.07;;;4.17;;
71187;SDS011;58893;53.130;8.158;2023-02-23T16:57:29;17.43;;;4.07;;
71187;SDS011;58893;53.130;8.158;2023-02-23T17:00:02;24.33;;;3.80;;
71187;SDS011;58893;53.130;8.158;2023-02-23T17:02:39;12.93;;;3.20;;
71187;SDS011;58893;53.130;8.158;2023-02-23T17:05:16;12.40;;;2.57;;
71187;SDS011;58893;53.130;8.158;2023-02-23T17:07:44;13.70;;;3.50;;
71187;SDS011;58893;53.130;8.158;2023-02-23T17:10:15;24.57;;;3.10;;
71187;SDS011;58893;53.130;8.158;2023-02-23T17:13:14;13.03;;;2.17;;
71187;SDS011;58893;53.130;8.158;2023-02-23T17:15:42;11.87;;;2.40;;
71187;SDS011;58893;53.130;8.158;2023-02-23T17:18:15;24.17;;;3.27;;
71187;SDS011;58893;53.130;8.158;2023-02-23T17:20:42;15.20;;;2.87;;
71187;SDS011;58893;53.130;8.158;2023-02-23T17:23:08;19.40;;;2.67;;
71187;SDS011;58893;53.130;8.158;2023-02-23T17:25:34;11.30;;;2.17;;
71187;SDS011;58893;53.130;8.158;2023-02-23T17:28:00;24.00;;;2.33;;
71187;SDS011;58893;53.130;8.158;2023-02-23T17:30:26;14.03;;;2.87;;
71187;SDS011;58893;53.130;8.158;2023-02-23T17:32:53;14.83;;;3.03;;
71187;SDS011;58893;53.130;8.158;2023-02-23T17:35:20;11.47;;;2.43;;
71187;SDS011;58893;53.130;8.158;2023-02-23T17:37:46;14.80;;;2.70;;
71187;SDS011;58893;53.130;8.158;2023-02-23T17:40:15;11.53;;;2.23;;
71187;SDS011;58893;53.130;8.158;2023-02-23T17:43:05;20.83;;;2.87;;
71187;SDS011;58893;53.130;8.158;2023-02-23T17:45:34;20.20;;;2.40;;
71187;SDS011;58893;53.130;8.158;2023-02-23T17:48:00;9.63;;;1.80;;
71187;SDS011;58893;53.130;8.158;2023-02-23T17:50:26;14.60;;;2.73;;
71187;SDS011;58893;53.130;8.158;2023-02-23T17:52:52;18.67;;;2.70;;